sensor_id;sensor_type;location;lat;lon;timestamp;temperature;humidity
28484;DHT22;15704;48.834;8.736;2024-03-08T00:00:10;11.40;96.50
28484;DHT22;15704;48.834;8.736;2024-03-08T00:02:42;11.40;96.40
28484;DHT22;15704;48.834;8.736;2024-03-08T00:05:09;11.40;96.40
28484;DHT22;15704;48.834;8.736;2024-03-08T00:07:40;11.40;96.40
28484;DHT22;15704;48.834;8.736;2024-03-08T00:10:09;11.40;96.50
28484;DHT22;15704;48.834;8.736;2024-03-08T00:12:42;11.40;96.50
28484;DHT22;15704;48.834;8.736;2024-03-08T00:17:37;11.40;96.50
28484;DHT22;15704;48.834;8.736;2024-03-08T00:20:05;11.40;96.50
28484;DHT22;15704;48.834;8.736;2024-03-08T00:22:35;11.40;96.50
28484;DHT22;15704;48.834;8.736;2024-03-08T00:25:06;11.40;96.40
28484;DHT22;15704;48.834;8.736;2024-03-08T00:27:36;11.40;96.40
28484;DHT22;15704;48.834;8.736;2024-03-08T00:30:03;11.40;96.50
28484;DHT22;15704;48.834;8.736;2024-03-08T00:32:31;11.40;96.40
28484;DHT22;15704;48.834;8.736;2024-03-08T00:34:58;11.40;96.40
28484;DHT22;15704;48.834;8.736;2024-03-08T00:37:25;11.40;96.40
28484;DHT22;15704;48.834;8.736;2024-03-08T00:39:52;11.30;96.40
28484;DHT22;15704;48.834;8.736;2024-03-08T00:42:20;11.30;96.40
28484;DHT22;15704;48.834;8.736;2024-03-08T00:44:47;11.40;96.50
28484;DHT22;15704;48.834;8.736;2024-03-08T00:47:18;11.40;96.50
28484;DHT22;15704;48.834;8.736;2024-03-08T00:49:45;11.30;96.50
28484;DHT22;15704;48.834;8.736;2024-03-08T00:52:13;11.30;96.40
28484;DHT22;15704;48.834;8.736;2024-03-08T00:54:41;11.40;96.40
28484;DHT22;15704;48.834;8.736;2024-03-08T00:57:10;11.40;96.40
28484;DHT22;15704;48.834;8.736;2024-03-08T00:59:40;11.30;96.40
28484;DHT22;15704;48.834;8.736;2024-03-08T01:02:07;11.40;96.40
28484;DHT22;15704;48.834;8.736;2024-03-08T01:04:35;11.40;96.40
28484;DHT22;15704;48.834;8.736;2024-03-08T01:07:02;11.40;96.40
28484;DHT22;15704;48.834;8.736;2024-03-08T01:09:29;11.40;96.40
28484;DHT22;15704;48.834;8.736;2024-03-08T01:11:56;11.30;96.40
28484;DHT22;15704;48.834;8.736;2024-03-08T01:14:24;11.40;96.40
28484;DHT22;15704;48.834;8.736;2024-03-08T01:16:52;11.30;96.40
28484;DHT22;15704;48.834;8.736;2024-03-08T01:19:19;11.30;96.40
28484;DHT22;15704;48.834;8.736;2024-03-08T01:21:46;11.30;96.40
28484;DHT22;15704;48.834;8.736;2024-03-08T01:24:13;11.30;96.40
28484;DHT22;15704;48.834;8.736;2024-03-08T01:26:40;11.40;96.40
28484;DHT22;15704;48.834;8.736;2024-03-08T01:29:06;11.40;96.40
28484;DHT22;15704;48.834;8.736;2024-03-08T01:31:34;11.40;96.40
28484;DHT22;15704;48.834;8.736;2024-03-08T01:34:03;11.40;96.40
28484;DHT22;15704;48.834;8.736;2024-03-08T01:36:30;11.40;96.40
28484;DHT22;15704;48.834;8.736;2024-03-08T01:38:57;11.30;96.30
28484;DHT22;15704;48.834;8.736;2024-03-08T01:41:24;11.30;96.30
28484;DHT22;15704;48.834;8.736;2024-03-08T01:43:51;11.30;96.30
28484;DHT22;15704;48.834;8.736;2024-03-08T01:46:21;11.30;96.30
28484;DHT22;15704;48.834;8.736;2024-03-08T01:48:51;11.30;96.40
28484;DHT22;15704;48.834;8.736;2024-03-08T01:51:20;11.30;96.40
28484;DHT22;15704;48.834;8.736;2024-03-08T01:53:47;11.30;96.40
28484;DHT22;15704;48.834;8.736;2024-03-08T01:56:15;11.30;96.30
28484;DHT22;15704;48.834;8.736;2024-03-08T01:58:42;11.30;96.30
28484;DHT22;15704;48.834;8.736;2024-03-08T02:01:13;11.30;96.30
28484;DHT22;15704;48.834;8.736;2024-03-08T02:03:44;11.40;96.30
28484;DHT22;15704;48.834;8.736;2024-03-08T02:06:12;11.30;96.30
28484;DHT22;15704;48.834;8.736;2024-03-08T02:08:45;11.30;96.30
28484;DHT22;15704;48.834;8.736;2024-03-08T02:11:13;11.40;96.30
28484;DHT22;15704;48.834;8.736;2024-03-08T02:13:40;11.30;96.30
28484;DHT22;15704;48.834;8.736;2024-03-08T02:16:07;11.30;96.50
28484;DHT22;15704;48.834;8.736;2024-03-08T02:18:35;11.30;96.30
28484;DHT22;15704;48.834;8.736;2024-03-08T02:21:04;11.30;96.30
28484;DHT22;15704;48.834;8.736;2024-03-08T02:23:32;11.30;96.30
28484;DHT22;15704;48.834;8.736;2024-03-08T02:26:00;11.20;96.30
28484;DHT22;15704;48.834;8.736;2024-03-08T02:28:27;11.30;96.30
28484;DHT22;15704;48.834;8.736;2024-03-08T02:30:54;11.30;96.30
28484;DHT22;15704;48.834;8.736;2024-03-08T02:33:24;11.30;96.30
28484;DHT22;15704;48.834;8.736;2024-03-08T02:35:51;11.30;96.30
28484;DHT22;15704;48.834;8.736;2024-03-08T02:38:20;11.30;96.30
28484;DHT22;15704;48.834;8.736;2024-03-08T02:40:49;11.30;96.30
28484;DHT22;15704;48.834;8.736;2024-03-08T02:43:17;11.30;96.30
28484;DHT22;15704;48.834;8.736;2024-03-08T02:45:44;11.30;96.30
28484;DHT22;15704;48.834;8.736;2024-03-08T02:48:15;11.30;96.30
28484;DHT22;15704;48.834;8.736;2024-03-08T02:50:45;11.30;96.30
28484;DHT22;15704;48.834;8.736;2024-03-08T02:53:13;11.30;96.30
28484;DHT22;15704;48.834;8.736;2024-03-08T02:55:41;11.20;96.20
28484;DHT22;15704;48.834;8.736;2024-03-08T02:58:08;11.20;96.20
28484;DHT22;15704;48.834;8.736;2024-03-08T03:00:37;11.30;96.30
28484;DHT22;15704;48.834;8.736;2024-03-08T03:03:05;11.30;96.20
28484;DHT22;15704;48.834;8.736;2024-03-08T03:05:33;11.30;96.30
28484;DHT22;15704;48.834;8.736;2024-03-08T03:08:00;11.30;96.20
28484;DHT22;15704;48.834;8.736;2024-03-08T03:10:28;11.30;96.20
28484;DHT22;15704;48.834;8.736;2024-03-08T03:12:54;11.30;96.20
28484;DHT22;15704;48.834;8.736;2024-03-08T03:15:21;11.30;96.20
28484;DHT22;15704;48.834;8.736;2024-03-08T03:17:53;11.30;96.20
28484;DHT22;15704;48.834;8.736;2024-03-08T03:20:20;11.30;96.20
28484;DHT22;15704;48.834;8.736;2024-03-08T03:22:53;11.20;96.20
28484;DHT22;15704;48.834;8.736;2024-03-08T03:25:20;11.20;96.20
28484;DHT22;15704;48.834;8.736;2024-03-08T03:27:52;11.20;96.20
28484;DHT22;15704;48.834;8.736;2024-03-08T03:30:23;11.20;96.20
28484;DHT22;15704;48.834;8.736;2024-03-08T03:32:54;11.20;96.20
28484;DHT22;15704;48.834;8.736;2024-03-08T03:35:28;11.30;96.20
28484;DHT22;15704;48.834;8.736;2024-03-08T03:37:56;11.30;96.20
28484;DHT22;15704;48.834;8.736;2024-03-08T03:40:32;11.30;96.20
28484;DHT22;15704;48.834;8.736;2024-03-08T03:42:59;11.20;96.20
28484;DHT22;15704;48.834;8.736;2024-03-08T03:45:26;11.20;96.10
28484;DHT22;15704;48.834;8.736;2024-03-08T03:47:52;11.30;96.20
28484;DHT22;15704;48.834;8.736;2024-03-08T03:50:23;11.30;96.20
28484;DHT22;15704;48.834;8.736;2024-03-08T03:52:50;11.20;96.20
28484;DHT22;15704;48.834;8.736;2024-03-08T03:55:17;11.20;96.20
28484;DHT22;15704;48.834;8.736;2024-03-08T03:57:44;11.20;96.20
28484;DHT22;15704;48.834;8.736;2024-03-08T04:00:12;11.20;96.20
28484;DHT22;15704;48.834;8.736;2024-03-08T04:02:40;11.20;96.20
28484;DHT22;15704;48.834;8.736;2024-03-08T04:05:08;11.20;96.20
28484;DHT22;15704;48.834;8.736;2024-03-08T04:07:36;11.20;96.20
28484;DHT22;15704;48.834;8.736;2024-03-08T04:10:04;11.20;96.20
28484;DHT22;15704;48.834;8.736;2024-03-08T04:12:33;11.20;96.10
28484;DHT22;15704;48.834;8.736;2024-03-08T04:15:02;11.30;96.10
28484;DHT22;15704;48.834;8.736;2024-03-08T04:17:29;11.20;96.10
28484;DHT22;15704;48.834;8.736;2024-03-08T04:19:56;11.30;96.10
28484;DHT22;15704;48.834;8.736;2024-03-08T04:22:23;11.20;96.10
28484;DHT22;15704;48.834;8.736;2024-03-08T04:24:50;11.20;96.10
28484;DHT22;15704;48.834;8.736;2024-03-08T04:27:17;11.20;96.10
28484;DHT22;15704;48.834;8.736;2024-03-08T04:29:44;11.20;96.10
28484;DHT22;15704;48.834;8.736;2024-03-08T04:32:11;11.20;96.20
28484;DHT22;15704;48.834;8.736;2024-03-08T04:34:40;11.20;96.10
28484;DHT22;15704;48.834;8.736;2024-03-08T04:37:11;11.20;96.10
28484;DHT22;15704;48.834;8.736;2024-03-08T04:39:40;11.20;96.10
28484;DHT22;15704;48.834;8.736;2024-03-08T04:42:07;11.20;96.10
28484;DHT22;15704;48.834;8.736;2024-03-08T04:44:38;11.20;96.10
28484;DHT22;15704;48.834;8.736;2024-03-08T04:47:04;11.20;96.10
28484;DHT22;15704;48.834;8.736;2024-03-08T04:49:34;11.20;96.10
28484;DHT22;15704;48.834;8.736;2024-03-08T04:52:03;11.20;96.10
28484;DHT22;15704;48.834;8.736;2024-03-08T04:54:30;11.20;96.10
28484;DHT22;15704;48.834;8.736;2024-03-08T04:56:57;11.20;96.10
28484;DHT22;15704;48.834;8.736;2024-03-08T04:59:27;11.20;96.10
28484;DHT22;15704;48.834;8.736;2024-03-08T05:01:54;11.20;96.10
28484;DHT22;15704;48.834;8.736;2024-03-08T05:04:21;11.20;96.10
28484;DHT22;15704;48.834;8.736;2024-03-08T05:06:48;11.20;96.10
28484;DHT22;15704;48.834;8.736;2024-03-08T05:09:15;11.10;96.00
28484;DHT22;15704;48.834;8.736;2024-03-08T05:11:43;11.20;96.10
28484;DHT22;15704;48.834;8.736;2024-03-08T05:14:11;11.10;96.10
28484;DHT22;15704;48.834;8.736;2024-03-08T05:16:43;11.20;96.10
28484;DHT22;15704;48.834;8.736;2024-03-08T05:19:10;11.20;96.10
28484;DHT22;15704;48.834;8.736;2024-03-08T05:21:37;11.20;96.00
28484;DHT22;15704;48.834;8.736;2024-03-08T05:24:04;11.20;96.00
28484;DHT22;15704;48.834;8.736;2024-03-08T05:26:31;11.20;96.10
28484;DHT22;15704;48.834;8.736;2024-03-08T05:28:59;11.20;96.00
28484;DHT22;15704;48.834;8.736;2024-03-08T05:31:26;11.20;96.00
28484;DHT22;15704;48.834;8.736;2024-03-08T05:33:55;11.20;96.00
28484;DHT22;15704;48.834;8.736;2024-03-08T05:36:22;11.20;96.00
28484;DHT22;15704;48.834;8.736;2024-03-08T05:38:48;11.20;96.00
28484;DHT22;15704;48.834;8.736;2024-03-08T05:41:17;11.10;96.00
28484;DHT22;15704;48.834;8.736;2024-03-08T05:43:44;11.10;96.00
28484;DHT22;15704;48.834;8.736;2024-03-08T05:46:14;11.10;96.00
28484;DHT22;15704;48.834;8.736;2024-03-08T05:48:41;11.10;96.00
28484;DHT22;15704;48.834;8.736;2024-03-08T05:51:08;11.20;96.00
28484;DHT22;15704;48.834;8.736;2024-03-08T05:53:35;11.10;96.00
28484;DHT22;15704;48.834;8.736;2024-03-08T05:56:02;11.10;96.00
28484;DHT22;15704;48.834;8.736;2024-03-08T05:58:29;11.20;96.00
28484;DHT22;15704;48.834;8.736;2024-03-08T06:00:56;11.20;95.90
28484;DHT22;15704;48.834;8.736;2024-03-08T06:03:23;11.20;96.00
28484;DHT22;15704;48.834;8.736;2024-03-08T06:05:50;11.10;95.90
28484;DHT22;15704;48.834;8.736;2024-03-08T06:08:17;11.10;95.90
28484;DHT22;15704;48.834;8.736;2024-03-08T06:10:45;11.10;95.90
28484;DHT22;15704;48.834;8.736;2024-03-08T06:13:15;11.20;96.00
28484;DHT22;15704;48.834;8.736;2024-03-08T06:15:41;11.10;95.90
28484;DHT22;15704;48.834;8.736;2024-03-08T06:18:08;11.10;95.90
28484;DHT22;15704;48.834;8.736;2024-03-08T06:20:38;11.10;95.90
28484;DHT22;15704;48.834;8.736;2024-03-08T06:23:05;11.10;95.90
28484;DHT22;15704;48.834;8.736;2024-03-08T06:25:32;11.10;95.90
28484;DHT22;15704;48.834;8.736;2024-03-08T06:27:59;11.10;95.90
28484;DHT22;15704;48.834;8.736;2024-03-08T06:30:25;11.10;95.80
28484;DHT22;15704;48.834;8.736;2024-03-08T06:32:52;11.20;95.90
28484;DHT22;15704;48.834;8.736;2024-03-08T06:35:19;11.10;95.90
28484;DHT22;15704;48.834;8.736;2024-03-08T06:37:46;11.10;95.80
28484;DHT22;15704;48.834;8.736;2024-03-08T06:40:13;11.20;95.80
28484;DHT22;15704;48.834;8.736;2024-03-08T06:42:41;11.10;95.80
28484;DHT22;15704;48.834;8.736;2024-03-08T06:45:08;11.10;95.80
28484;DHT22;15704;48.834;8.736;2024-03-08T06:47:36;11.10;95.80
28484;DHT22;15704;48.834;8.736;2024-03-08T06:50:04;11.10;95.90
28484;DHT22;15704;48.834;8.736;2024-03-08T06:52:32;11.10;95.80
28484;DHT22;15704;48.834;8.736;2024-03-08T06:54:59;11.10;95.90
28484;DHT22;15704;48.834;8.736;2024-03-08T06:57:28;11.10;95.90
28484;DHT22;15704;48.834;8.736;2024-03-08T06:59:56;11.10;96.20
28484;DHT22;15704;48.834;8.736;2024-03-08T07:02:23;11.10;95.90
28484;DHT22;15704;48.834;8.736;2024-03-08T07:04:54;11.10;95.80
28484;DHT22;15704;48.834;8.736;2024-03-08T07:07:21;11.10;95.80
28484;DHT22;15704;48.834;8.736;2024-03-08T07:09:48;11.10;95.80
28484;DHT22;15704;48.834;8.736;2024-03-08T07:12:16;11.10;95.80
28484;DHT22;15704;48.834;8.736;2024-03-08T07:14:43;11.10;95.80
28484;DHT22;15704;48.834;8.736;2024-03-08T07:17:12;11.20;95.80
28484;DHT22;15704;48.834;8.736;2024-03-08T07:19:39;11.10;95.80
28484;DHT22;15704;48.834;8.736;2024-03-08T07:22:06;11.10;95.80
28484;DHT22;15704;48.834;8.736;2024-03-08T07:24:35;11.10;95.80
28484;DHT22;15704;48.834;8.736;2024-03-08T07:27:20;11.10;95.80
28484;DHT22;15704;48.834;8.736;2024-03-08T07:29:47;11.10;95.80
28484;DHT22;15704;48.834;8.736;2024-03-08T07:32:15;11.10;95.90
28484;DHT22;15704;48.834;8.736;2024-03-08T07:34:48;11.10;95.80
28484;DHT22;15704;48.834;8.736;2024-03-08T07:37:17;11.10;95.80
28484;DHT22;15704;48.834;8.736;2024-03-08T07:39:45;11.10;95.80
28484;DHT22;15704;48.834;8.736;2024-03-08T07:42:13;11.10;95.80
28484;DHT22;15704;48.834;8.736;2024-03-08T07:44:39;11.10;95.80
28484;DHT22;15704;48.834;8.736;2024-03-08T07:47:06;11.10;95.80
28484;DHT22;15704;48.834;8.736;2024-03-08T07:49:36;11.10;95.80
28484;DHT22;15704;48.834;8.736;2024-03-08T07:52:06;11.10;95.80
28484;DHT22;15704;48.834;8.736;2024-03-08T07:54:34;11.10;95.80
28484;DHT22;15704;48.834;8.736;2024-03-08T07:57:03;11.10;95.80
28484;DHT22;15704;48.834;8.736;2024-03-08T07:59:31;11.10;95.80
28484;DHT22;15704;48.834;8.736;2024-03-08T08:01:58;11.10;95.80
28484;DHT22;15704;48.834;8.736;2024-03-08T08:04:26;11.10;95.80
28484;DHT22;15704;48.834;8.736;2024-03-08T08:06:53;11.10;95.80
28484;DHT22;15704;48.834;8.736;2024-03-08T08:09:21;11.10;95.80
28484;DHT22;15704;48.834;8.736;2024-03-08T08:12:01;11.10;95.80
28484;DHT22;15704;48.834;8.736;2024-03-08T08:14:31;11.10;95.80
28484;DHT22;15704;48.834;8.736;2024-03-08T08:16:57;11.10;95.90
28484;DHT22;15704;48.834;8.736;2024-03-08T08:19:27;11.10;95.90
28484;DHT22;15704;48.834;8.736;2024-03-08T08:21:54;11.10;95.90
28484;DHT22;15704;48.834;8.736;2024-03-08T08:24:21;11.10;95.90
28484;DHT22;15704;48.834;8.736;2024-03-08T08:26:48;11.10;96.10
28484;DHT22;15704;48.834;8.736;2024-03-08T08:29:15;11.10;95.90
28484;DHT22;15704;48.834;8.736;2024-03-08T08:31:42;11.10;95.80
28484;DHT22;15704;48.834;8.736;2024-03-08T08:34:09;11.10;95.90
28484;DHT22;15704;48.834;8.736;2024-03-08T08:36:38;11.10;95.80
28484;DHT22;15704;48.834;8.736;2024-03-08T08:39:05;11.10;95.80
28484;DHT22;15704;48.834;8.736;2024-03-08T08:41:39;11.10;95.80
28484;DHT22;15704;48.834;8.736;2024-03-08T08:44:08;11.10;95.80
28484;DHT22;15704;48.834;8.736;2024-03-08T08:46:42;11.10;95.80
28484;DHT22;15704;48.834;8.736;2024-03-08T08:49:09;11.10;95.80
28484;DHT22;15704;48.834;8.736;2024-03-08T08:51:37;11.10;95.90
28484;DHT22;15704;48.834;8.736;2024-03-08T08:54:05;11.10;95.90
28484;DHT22;15704;48.834;8.736;2024-03-08T08:56:37;11.10;95.90
28484;DHT22;15704;48.834;8.736;2024-03-08T08:59:04;11.10;95.90
28484;DHT22;15704;48.834;8.736;2024-03-08T09:01:31;11.10;95.90
28484;DHT22;15704;48.834;8.736;2024-03-08T09:03:58;11.10;95.80
28484;DHT22;15704;48.834;8.736;2024-03-08T09:06:25;11.10;95.80
28484;DHT22;15704;48.834;8.736;2024-03-08T09:08:52;11.10;95.80
28484;DHT22;15704;48.834;8.736;2024-03-08T09:11:19;11.10;95.80
28484;DHT22;15704;48.834;8.736;2024-03-08T09:13:46;11.10;95.80
28484;DHT22;15704;48.834;8.736;2024-03-08T09:16:14;11.20;95.80
28484;DHT22;15704;48.834;8.736;2024-03-08T09:18:40;11.10;95.70
28484;DHT22;15704;48.834;8.736;2024-03-08T09:21:08;11.20;95.80
28484;DHT22;15704;48.834;8.736;2024-03-08T09:23:39;11.20;95.80
28484;DHT22;15704;48.834;8.736;2024-03-08T09:26:08;11.20;95.70
28484;DHT22;15704;48.834;8.736;2024-03-08T09:28:48;11.20;95.70
28484;DHT22;15704;48.834;8.736;2024-03-08T09:31:15;11.10;95.70
28484;DHT22;15704;48.834;8.736;2024-03-08T09:33:42;11.20;95.80
28484;DHT22;15704;48.834;8.736;2024-03-08T09:36:09;11.20;95.80
28484;DHT22;15704;48.834;8.736;2024-03-08T09:38:35;11.20;95.70
28484;DHT22;15704;48.834;8.736;2024-03-08T09:41:02;11.20;95.70
28484;DHT22;15704;48.834;8.736;2024-03-08T09:43:30;11.20;95.70
28484;DHT22;15704;48.834;8.736;2024-03-08T09:45:58;11.20;95.70
28484;DHT22;15704;48.834;8.736;2024-03-08T09:48:26;11.20;95.70
28484;DHT22;15704;48.834;8.736;2024-03-08T09:50:52;11.20;95.70
28484;DHT22;15704;48.834;8.736;2024-03-08T09:53:20;11.20;95.70
28484;DHT22;15704;48.834;8.736;2024-03-08T09:55:48;11.20;95.70
28484;DHT22;15704;48.834;8.736;2024-03-08T09:58:16;11.20;95.70
28484;DHT22;15704;48.834;8.736;2024-03-08T10:00:54;11.20;95.70
28484;DHT22;15704;48.834;8.736;2024-03-08T10:03:24;11.20;95.70
28484;DHT22;15704;48.834;8.736;2024-03-08T10:05:53;11.20;95.70
28484;DHT22;15704;48.834;8.736;2024-03-08T10:08:23;11.20;95.70
28484;DHT22;15704;48.834;8.736;2024-03-08T10:10:51;11.20;95.70
28484;DHT22;15704;48.834;8.736;2024-03-08T10:13:18;11.20;95.70
28484;DHT22;15704;48.834;8.736;2024-03-08T10:15:46;11.20;95.70
28484;DHT22;15704;48.834;8.736;2024-03-08T10:18:13;11.20;95.70
28484;DHT22;15704;48.834;8.736;2024-03-08T10:20:40;11.20;95.80
28484;DHT22;15704;48.834;8.736;2024-03-08T10:23:08;11.20;95.90
28484;DHT22;15704;48.834;8.736;2024-03-08T10:25:38;11.20;95.90
28484;DHT22;15704;48.834;8.736;2024-03-08T10:28:05;11.20;95.90
28484;DHT22;15704;48.834;8.736;2024-03-08T10:30:32;11.30;95.90
28484;DHT22;15704;48.834;8.736;2024-03-08T10:32:59;11.30;95.90
28484;DHT22;15704;48.834;8.736;2024-03-08T10:35:26;11.30;95.90
28484;DHT22;15704;48.834;8.736;2024-03-08T10:37:57;11.30;95.80
28484;DHT22;15704;48.834;8.736;2024-03-08T10:40:29;11.30;95.80
28484;DHT22;15704;48.834;8.736;2024-03-08T10:42:58;11.20;95.80
28484;DHT22;15704;48.834;8.736;2024-03-08T10:45:39;11.20;95.80
28484;DHT22;15704;48.834;8.736;2024-03-08T10:48:28;11.30;95.80
28484;DHT22;15704;48.834;8.736;2024-03-08T10:51:04;11.20;95.70
28484;DHT22;15704;48.834;8.736;2024-03-08T10:53:33;11.20;95.70
28484;DHT22;15704;48.834;8.736;2024-03-08T10:56:00;11.20;95.70
28484;DHT22;15704;48.834;8.736;2024-03-08T10:58:29;11.20;95.70
28484;DHT22;15704;48.834;8.736;2024-03-08T11:00:57;11.30;95.70
28484;DHT22;15704;48.834;8.736;2024-03-08T11:03:53;11.20;95.70
28484;DHT22;15704;48.834;8.736;2024-03-08T11:06:30;11.30;95.70
28484;DHT22;15704;48.834;8.736;2024-03-08T11:08:59;11.20;95.60
28484;DHT22;15704;48.834;8.736;2024-03-08T11:11:30;11.20;95.60
28484;DHT22;15704;48.834;8.736;2024-03-08T11:14:02;11.30;95.60
28484;DHT22;15704;48.834;8.736;2024-03-08T11:19:07;11.30;95.60
28484;DHT22;15704;48.834;8.736;2024-03-08T11:22:01;11.30;95.60
28484;DHT22;15704;48.834;8.736;2024-03-08T11:24:37;11.30;95.60
28484;DHT22;15704;48.834;8.736;2024-03-08T11:27:07;11.30;95.60
28484;DHT22;15704;48.834;8.736;2024-03-08T11:29:37;11.30;95.60
28484;DHT22;15704;48.834;8.736;2024-03-08T11:32:14;11.20;95.60
28484;DHT22;15704;48.834;8.736;2024-03-08T11:34:45;11.20;95.60
28484;DHT22;15704;48.834;8.736;2024-03-08T11:37:14;11.20;95.60
28484;DHT22;15704;48.834;8.736;2024-03-08T11:40:02;11.30;95.70
28484;DHT22;15704;48.834;8.736;2024-03-08T11:42:35;11.30;95.60
28484;DHT22;15704;48.834;8.736;2024-03-08T11:45:08;11.30;95.60
28484;DHT22;15704;48.834;8.736;2024-03-08T11:47:37;11.30;95.60
28484;DHT22;15704;48.834;8.736;2024-03-08T11:50:07;11.30;95.60
28484;DHT22;15704;48.834;8.736;2024-03-08T11:52:38;11.20;95.70
28484;DHT22;15704;48.834;8.736;2024-03-08T11:55:05;11.30;95.70
28484;DHT22;15704;48.834;8.736;2024-03-08T11:57:32;11.30;95.80
28484;DHT22;15704;48.834;8.736;2024-03-08T12:00:00;11.20;95.80
28484;DHT22;15704;48.834;8.736;2024-03-08T12:02:33;11.20;95.80
28484;DHT22;15704;48.834;8.736;2024-03-08T12:05:05;11.30;95.90
28484;DHT22;15704;48.834;8.736;2024-03-08T12:07:43;11.30;95.90
28484;DHT22;15704;48.834;8.736;2024-03-08T12:10:22;11.30;95.90
28484;DHT22;15704;48.834;8.736;2024-03-08T12:12:53;11.30;95.90
28484;DHT22;15704;48.834;8.736;2024-03-08T12:15:22;11.30;95.90
28484;DHT22;15704;48.834;8.736;2024-03-08T12:17:53;11.30;95.90
28484;DHT22;15704;48.834;8.736;2024-03-08T12:20:24;11.30;95.90
28484;DHT22;15704;48.834;8.736;2024-03-08T12:22:57;11.30;95.90
28484;DHT22;15704;48.834;8.736;2024-03-08T12:25:31;11.30;96.00
28484;DHT22;15704;48.834;8.736;2024-03-08T12:28:11;11.30;96.00
28484;DHT22;15704;48.834;8.736;2024-03-08T12:30:48;11.30;96.00
28484;DHT22;15704;48.834;8.736;2024-03-08T12:33:15;11.30;96.00
28484;DHT22;15704;48.834;8.736;2024-03-08T12:35:53;11.30;96.00
28484;DHT22;15704;48.834;8.736;2024-03-08T12:38:22;11.30;96.10
28484;DHT22;15704;48.834;8.736;2024-03-08T12:40:58;11.30;96.10
28484;DHT22;15704;48.834;8.736;2024-03-08T12:43:26;11.30;96.10
28484;DHT22;15704;48.834;8.736;2024-03-08T12:45:57;11.30;96.10
28484;DHT22;15704;48.834;8.736;2024-03-08T12:48:24;11.30;96.10
28484;DHT22;15704;48.834;8.736;2024-03-08T12:50:51;11.30;96.10
28484;DHT22;15704;48.834;8.736;2024-03-08T12:53:23;11.30;96.10
28484;DHT22;15704;48.834;8.736;2024-03-08T12:55:51;11.30;96.10
28484;DHT22;15704;48.834;8.736;2024-03-08T12:58:19;11.30;96.10
28484;DHT22;15704;48.834;8.736;2024-03-08T13:00:46;11.30;96.10
28484;DHT22;15704;48.834;8.736;2024-03-08T13:03:17;11.30;96.10
28484;DHT22;15704;48.834;8.736;2024-03-08T13:05:44;11.30;96.10
28484;DHT22;15704;48.834;8.736;2024-03-08T13:08:10;11.30;96.20
28484;DHT22;15704;48.834;8.736;2024-03-08T13:10:40;11.30;96.20
28484;DHT22;15704;48.834;8.736;2024-03-08T13:13:11;11.30;96.20
28484;DHT22;15704;48.834;8.736;2024-03-08T13:15:40;11.20;96.10
28484;DHT22;15704;48.834;8.736;2024-03-08T13:18:07;11.20;96.10
28484;DHT22;15704;48.834;8.736;2024-03-08T13:20:36;11.20;96.10
28484;DHT22;15704;48.834;8.736;2024-03-08T13:23:13;11.20;96.20
28484;DHT22;15704;48.834;8.736;2024-03-08T13:25:40;11.20;96.20
28484;DHT22;15704;48.834;8.736;2024-03-08T13:28:08;11.20;96.20
28484;DHT22;15704;48.834;8.736;2024-03-08T13:30:35;11.10;96.20
28484;DHT22;15704;48.834;8.736;2024-03-08T13:33:02;11.10;96.20
28484;DHT22;15704;48.834;8.736;2024-03-08T13:35:33;11.10;96.20
28484;DHT22;15704;48.834;8.736;2024-03-08T13:38:01;11.10;96.20
28484;DHT22;15704;48.834;8.736;2024-03-08T13:40:31;11.10;96.30
28484;DHT22;15704;48.834;8.736;2024-03-08T13:42:58;11.00;96.40
28484;DHT22;15704;48.834;8.736;2024-03-08T13:45:28;11.00;96.60
28484;DHT22;15704;48.834;8.736;2024-03-08T13:47:54;11.00;96.60
28484;DHT22;15704;48.834;8.736;2024-03-08T13:50:22;11.00;96.60
28484;DHT22;15704;48.834;8.736;2024-03-08T13:52:50;11.00;96.60
28484;DHT22;15704;48.834;8.736;2024-03-08T13:55:24;11.00;96.60
28484;DHT22;15704;48.834;8.736;2024-03-08T13:57:54;11.00;96.60
28484;DHT22;15704;48.834;8.736;2024-03-08T14:00:21;10.90;96.60
28484;DHT22;15704;48.834;8.736;2024-03-08T14:02:49;10.90;96.60
28484;DHT22;15704;48.834;8.736;2024-03-08T14:05:16;10.90;96.60
28484;DHT22;15704;48.834;8.736;2024-03-08T14:07:46;10.90;96.60
28484;DHT22;15704;48.834;8.736;2024-03-08T14:10:16;10.90;96.60
28484;DHT22;15704;48.834;8.736;2024-03-08T14:12:50;10.90;96.60
28484;DHT22;15704;48.834;8.736;2024-03-08T14:15:17;10.90;96.60
28484;DHT22;15704;48.834;8.736;2024-03-08T14:17:44;10.90;96.60
28484;DHT22;15704;48.834;8.736;2024-03-08T14:20:13;10.90;96.60
28484;DHT22;15704;48.834;8.736;2024-03-08T14:22:40;10.80;96.60
28484;DHT22;15704;48.834;8.736;2024-03-08T14:25:07;10.80;96.90
28484;DHT22;15704;48.834;8.736;2024-03-08T14:27:45;10.80;96.60
28484;DHT22;15704;48.834;8.736;2024-03-08T14:30:13;10.80;97.10
28484;DHT22;15704;48.834;8.736;2024-03-08T14:32:44;10.80;97.40
28484;DHT22;15704;48.834;8.736;2024-03-08T14:35:11;10.80;97.50
28484;DHT22;15704;48.834;8.736;2024-03-08T14:37:38;10.80;97.50
28484;DHT22;15704;48.834;8.736;2024-03-08T14:40:05;10.80;97.50
28484;DHT22;15704;48.834;8.736;2024-03-08T14:42:32;10.80;97.50
28484;DHT22;15704;48.834;8.736;2024-03-08T14:44:59;10.80;97.40
28484;DHT22;15704;48.834;8.736;2024-03-08T14:47:26;10.80;97.40
28484;DHT22;15704;48.834;8.736;2024-03-08T14:49:55;10.80;97.40
28484;DHT22;15704;48.834;8.736;2024-03-08T14:52:22;10.80;97.40
28484;DHT22;15704;48.834;8.736;2024-03-08T14:54:55;10.80;97.40
28484;DHT22;15704;48.834;8.736;2024-03-08T14:57:23;10.80;97.40
28484;DHT22;15704;48.834;8.736;2024-03-08T14:59:50;10.80;97.40
28484;DHT22;15704;48.834;8.736;2024-03-08T15:02:17;10.80;97.30
28484;DHT22;15704;48.834;8.736;2024-03-08T15:04:49;10.80;97.30
28484;DHT22;15704;48.834;8.736;2024-03-08T15:07:27;10.70;97.20
28484;DHT22;15704;48.834;8.736;2024-03-08T15:09:57;10.80;97.20
28484;DHT22;15704;48.834;8.736;2024-03-08T15:12:24;10.80;97.20
28484;DHT22;15704;48.834;8.736;2024-03-08T15:14:53;10.80;97.30
28484;DHT22;15704;48.834;8.736;2024-03-08T15:17:22;10.70;97.20
28484;DHT22;15704;48.834;8.736;2024-03-08T15:19:49;10.80;97.60
28484;DHT22;15704;48.834;8.736;2024-03-08T15:22:16;10.80;97.30
28484;DHT22;15704;48.834;8.736;2024-03-08T15:24:44;10.80;97.30
28484;DHT22;15704;48.834;8.736;2024-03-08T15:27:11;10.80;97.30
28484;DHT22;15704;48.834;8.736;2024-03-08T15:29:41;10.80;97.30
28484;DHT22;15704;48.834;8.736;2024-03-08T15:32:11;10.80;97.30
28484;DHT22;15704;48.834;8.736;2024-03-08T15:34:48;10.80;97.30
28484;DHT22;15704;48.834;8.736;2024-03-08T15:37:15;10.80;97.30
28484;DHT22;15704;48.834;8.736;2024-03-08T15:39:43;10.80;97.30
28484;DHT22;15704;48.834;8.736;2024-03-08T15:42:10;10.80;97.30
28484;DHT22;15704;48.834;8.736;2024-03-08T15:44:40;10.80;97.30